Time;durP1;ratioP1;P1;durP2;ratioP2;P2;SDS_P1;SDS_P2;PMS_P1;PMS_P2;Temp;Humidity;BMP_temperature;BMP_pressure;BME280_temperature;BME280_humidity;BME280_pressure;Samples;Min_cycle;Max_cycle;Signal;HPM_P1;HPM_P2
2023/11/12 00:00:50;;;;;;;37.27;33.97;;;;;;;;;;5147129;27;20545;-80
2023/11/12 00:03:19;;;;;;;37.50;34.30;;;;;;;;;;5147279;27;20439;-78
2023/11/12 00:05:46;;;;;;;37.37;34.07;;;;;;;;;;5144558;27;20219;-78
2023/11/12 00:08:13;;;;;;;37.45;34.45;;;;;;;;;;5143796;27;20475;-79
2023/11/12 00:10:40;;;;;;;38.50;34.87;;;;;;;;;;5122059;28;20217;-78
2023/11/12 00:13:08;;;;;;;37.85;34.55;;;;;;;;;;5121745;28;20414;-79
2023/11/12 00:15:35;;;;;;;37.60;34.10;;;;;;;;;;5121216;28;20214;-78
2023/11/12 00:18:02;;;;;;;38.23;34.83;;;;;;;;;;5121049;28;20537;-79
2023/11/12 00:20:31;;;;;;;35.77;32.93;;;;;;;;;;5122040;28;20432;-80
2023/11/12 00:22:59;;;;;;;34.63;31.83;;;;;;;;;;5121644;28;20438;-79
2023/11/12 00:25:26;;;;;;;36.90;33.57;;;;;;;;;;5121513;28;20238;-79
2023/11/12 00:27:54;;;;;;;37.63;34.17;;;;;;;;;;5121591;28;20472;-80
2023/11/12 00:30:21;;;;;;;38.27;34.70;;;;;;;;;;5122074;28;20425;-79
2023/11/12 00:32:48;;;;;;;38.87;35.27;;;;;;;;;;5121685;28;20434;-79
2023/11/12 00:35:15;;;;;;;37.17;33.77;;;;;;;;;;5120748;28;20423;-78
2023/11/12 00:37:43;;;;;;;36.33;33.07;;;;;;;;;;5121285;28;20479;-79
2023/11/12 00:40:14;;;;;;;35.40;32.60;;;;;;;;;;5132908;27;20456;-80
2023/11/12 00:42:41;;;;;;;36.10;32.73;;;;;;;;;;5142601;27;20542;-80
2023/11/12 00:45:09;;;;;;;35.67;32.60;;;;;;;;;;5141626;27;20792;-78
2023/11/12 00:47:36;;;;;;;35.73;32.50;;;;;;;;;;5140324;27;20474;-78
2023/11/12 00:50:03;;;;;;;35.20;31.87;;;;;;;;;;5137197;27;20818;-79
2023/11/12 00:52:30;;;;;;;35.27;32.37;;;;;;;;;;5141732;27;20447;-79
2023/11/12 00:54:58;;;;;;;35.43;31.70;;;;;;;;;;5140559;27;20466;-78
2023/11/12 00:57:25;;;;;;;36.00;32.60;;;;;;;;;;5141410;27;20498;-79
2023/11/12 00:59:52;;;;;;;36.20;33.10;;;;;;;;;;5141667;27;20581;-79
2023/11/12 01:02:19;;;;;;;36.47;33.07;;;;;;;;;;5141586;27;20435;-80
2023/11/12 01:04:47;;;;;;;36.30;32.90;;;;;;;;;;5140803;27;20438;-80
2023/11/12 01:07:14;;;;;;;35.95;32.85;;;;;;;;;;5140008;27;20861;-79
2023/11/12 01:09:41;;;;;;;35.33;32.43;;;;;;;;;;5141042;27;20205;-79
2023/11/12 01:12:10;;;;;;;34.93;32.13;;;;;;;;;;5140990;27;20446;-79
2023/11/12 01:14:37;;;;;;;36.30;33.20;;;;;;;;;;5140389;27;20501;-79
2023/11/12 01:17:05;;;;;;;36.83;33.83;;;;;;;;;;5141020;27;20486;-79
2023/11/12 01:19:32;;;;;;;35.73;32.63;;;;;;;;;;5137383;27;20443;-79
2023/11/12 01:21:59;;;;;;;36.27;33.07;;;;;;;;;;5120744;28;20406;-79
2023/11/12 01:24:27;;;;;;;37.03;33.83;;;;;;;;;;5119443;28;20428;-79
2023/11/12 01:26:54;;;;;;;36.58;33.17;;;;;;;;;;5120314;28;20444;-79
2023/11/12 01:29:22;;;;;;;34.70;31.60;;;;;;;;;;5120259;28;20217;-78
2023/11/12 01:31:51;;;;;;;36.33;32.97;;;;;;;;;;5120805;28;20459;-79
2023/11/12 01:34:18;;;;;;;36.05;32.70;;;;;;;;;;5120012;28;20474;-79
2023/11/12 01:36:45;;;;;;;35.00;31.87;;;;;;;;;;5119171;28;20214;-79
2023/11/12 01:39:12;;;;;;;36.83;33.37;;;;;;;;;;5120343;28;20505;-79
2023/11/12 01:41:39;;;;;;;35.45;31.88;;;;;;;;;;5120127;28;20460;-80
2023/11/12 01:44:07;;;;;;;36.05;32.78;;;;;;;;;;5119126;28;20213;-79
2023/11/12 01:46:36;;;;;;;36.25;33.13;;;;;;;;;;5124494;27;20674;-79
2023/11/12 01:49:04;;;;;;;36.83;33.23;;;;;;;;;;5119216;28;20229;-79
2023/11/12 01:51:33;;;;;;;38.80;35.37;;;;;;;;;;5139295;27;20455;-81
2023/11/12 01:54:02;;;;;;;37.53;34.33;;;;;;;;;;5139615;27;20422;-78
2023/11/12 01:56:29;;;;;;;38.03;34.67;;;;;;;;;;5132375;27;20454;-78
2023/11/12 01:58:58;;;;;;;40.73;36.77;;;;;;;;;;5119957;28;20467;-78
2023/11/12 02:01:25;;;;;;;42.37;38.60;;;;;;;;;;5119429;28;20458;-81
2023/11/12 02:03:54;;;;;;;39.67;36.07;;;;;;;;;;5119029;28;20456;-79
2023/11/12 02:06:21;;;;;;;37.40;33.70;;;;;;;;;;5120188;28;21133;-80
2023/11/12 02:08:48;;;;;;;38.73;34.83;;;;;;;;;;5131816;27;20473;-79
2023/11/12 02:11:15;;;;;;;36.77;33.10;;;;;;;;;;5140254;27;20483;-79
2023/11/12 02:13:43;;;;;;;40.50;35.23;;;;;;;;;;5140519;27;20425;-78
2023/11/12 02:16:10;;;;;;;36.67;33.30;;;;;;;;;;5139170;27;20469;-79
2023/11/12 02:18:37;;;;;;;35.57;32.40;;;;;;;;;;5129131;27;20496;-79
2023/11/12 02:21:05;;;;;;;37.20;33.50;;;;;;;;;;5119369;28;20443;-78
2023/11/12 02:23:37;;;;;;;34.92;31.60;;;;;;;;;;5119360;28;20448;-79
2023/11/12 02:26:05;;;;;;;34.70;31.70;;;;;;;;;;5118535;28;20417;-79
2023/11/12 02:28:32;;;;;;;38.28;34.58;;;;;;;;;;5118508;28;20304;-79
2023/11/12 02:30:59;;;;;;;37.63;33.95;;;;;;;;;;5118172;28;20206;-80
2023/11/12 02:33:27;;;;;;;38.33;34.88;;;;;;;;;;5119259;28;20216;-79
2023/11/12 02:35:55;;;;;;;38.13;34.63;;;;;;;;;;5117223;28;20275;-80
2023/11/12 02:38:22;;;;;;;36.33;32.88;;;;;;;;;;5118513;27;20234;-80
2023/11/12 02:40:51;;;;;;;36.75;33.05;;;;;;;;;;5134548;27;20209;-80
2023/11/12 02:43:19;;;;;;;37.63;34.22;;;;;;;;;;5137535;27;20248;-80
2023/11/12 02:45:46;;;;;;;37.17;33.70;;;;;;;;;;5138365;27;20221;-81
2023/11/12 02:48:13;;;;;;;37.10;33.58;;;;;;;;;;5138592;27;20227;-80
2023/11/12 02:50:41;;;;;;;48.70;34.42;;;;;;;;;;5138201;27;20216;-80
2023/11/12 02:53:10;;;;;;;36.42;33.13;;;;;;;;;;5138119;27;20229;-80
2023/11/12 02:55:37;;;;;;;35.63;32.33;;;;;;;;;;5137372;28;20216;-81
2023/11/12 02:58:05;;;;;;;34.30;31.30;;;;;;;;;;5137807;28;20567;-81
2023/11/12 03:00:33;;;;;;;37.93;34.40;;;;;;;;;;5137821;28;20434;-81
2023/11/12 03:03:00;;;;;;;35.75;32.25;;;;;;;;;;5137778;28;20446;-80
2023/11/12 03:05:28;;;;;;;37.50;34.05;;;;;;;;;;5137422;28;20209;-79
2023/11/12 03:07:57;;;;;;;35.35;32.15;;;;;;;;;;5137483;28;20217;-81
2023/11/12 03:10:25;;;;;;;36.95;33.75;;;;;;;;;;5137010;28;20616;-80
2023/11/12 03:12:53;;;;;;;37.47;33.87;;;;;;;;;;5137952;28;20209;-81
2023/11/12 03:15:21;;;;;;;36.33;33.30;;;;;;;;;;5137580;28;20453;-79
2023/11/12 03:17:51;;;;;;;35.60;32.50;;;;;;;;;;5137745;28;20244;-79
2023/11/12 03:20:18;;;;;;;34.60;31.50;;;;;;;;;;5138058;28;20451;-80
2023/11/12 03:22:46;;;;;;;36.77;33.60;;;;;;;;;;5138218;28;20461;-80
2023/11/12 03:25:14;;;;;;;35.63;32.47;;;;;;;;;;5137845;28;20421;-81
2023/11/12 03:27:41;;;;;;;36.50;32.90;;;;;;;;;;5138097;28;20493;-80
2023/11/12 03:30:09;;;;;;;36.58;33.35;;;;;;;;;;5137475;28;20845;-81
2023/11/12 03:32:37;;;;;;;34.03;30.83;;;;;;;;;;5137345;28;20228;-80
2023/11/12 03:35:06;;;;;;;34.13;31.17;;;;;;;;;;5136764;28;20442;-81
2023/11/12 03:37:33;;;;;;;36.50;33.38;;;;;;;;;;5137127;28;20494;-80
2023/11/12 03:40:00;;;;;;;34.80;31.80;;;;;;;;;;5137753;28;20200;-81
2023/11/12 03:42:27;;;;;;;35.30;32.17;;;;;;;;;;5138022;27;20466;-81
2023/11/12 03:44:56;;;;;;;35.43;32.10;;;;;;;;;;5124330;28;20233;-80
2023/11/12 03:47:24;;;;;;;34.28;31.38;;;;;;;;;;5135821;27;20487;-81
2023/11/12 03:49:52;;;;;;;33.08;30.30;;;;;;;;;;5120395;28;20225;-80
2023/11/12 03:52:19;;;;;;;33.72;30.85;;;;;;;;;;5139108;27;20217;-79
2023/11/12 03:54:46;;;;;;;32.57;29.93;;;;;;;;;;5140766;27;20229;-80
2023/11/12 03:57:14;;;;;;;33.80;30.85;;;;;;;;;;5140844;27;20484;-79
2023/11/12 03:59:41;;;;;;;33.30;30.43;;;;;;;;;;5141243;27;20229;-81
2023/11/12 04:02:08;;;;;;;33.10;30.23;;;;;;;;;;5140998;27;20478;-80
2023/11/12 04:04:35;;;;;;;33.30;30.40;;;;;;;;;;5140623;27;20458;-81
2023/11/12 04:07:04;;;;;;;35.27;32.17;;;;;;;;;;5140734;27;20198;-81
2023/11/12 04:09:31;;;;;;;31.73;29.17;;;;;;;;;;5140274;27;20451;-80
2023/11/12 04:11:58;;;;;;;30.67;28.17;;;;;;;;;;5141421;27;20209;-80
2023/11/12 04:14:25;;;;;;;32.03;29.10;;;;;;;;;;5140155;27;20453;-81
2023/11/12 04:16:52;;;;;;;32.67;29.97;;;;;;;;;;5132216;27;20502;-81
2023/11/12 04:19:19;;;;;;;31.57;28.80;;;;;;;;;;5126008;27;20455;-79
2023/11/12 04:21:47;;;;;;;31.20;28.70;;;;;;;;;;5140342;27;20439;-80
2023/11/12 04:24:16;;;;;;;31.27;28.73;;;;;;;;;;5140491;27;20470;-80
2023/11/12 04:26:44;;;;;;;32.20;29.60;;;;;;;;;;5140647;27;20427;-81
2023/11/12 04:29:13;;;;;;;32.03;29.13;;;;;;;;;;5122846;27;20649;-82
2023/11/12 04:31:40;;;;;;;31.27;28.60;;;;;;;;;;5123206;27;20450;-80
2023/11/12 04:34:07;;;;;;;31.10;28.60;;;;;;;;;;5118451;28;20515;-80
2023/11/12 04:36:36;;;;;;;29.73;27.10;;;;;;;;;;5119662;28;20530;-80
2023/11/12 04:39:03;;;;;;;32.53;29.97;;;;;;;;;;5119058;28;20476;-80
2023/11/12 04:41:32;;;;;;;32.35;29.40;;;;;;;;;;5131363;27;20459;-82
2023/11/12 04:44:00;;;;;;;31.67;28.83;;;;;;;;;;5139880;27;20212;-80
2023/11/12 04:46:28;;;;;;;31.10;28.73;;;;;;;;;;5139406;27;20534;-79
2023/11/12 04:48:55;;;;;;;30.70;28.10;;;;;;;;;;5118572;28;20222;-79
2023/11/12 04:51:22;;;;;;;30.43;27.93;;;;;;;;;;5119302;27;20455;-81
2023/11/12 04:53:49;;;;;;;32.63;29.63;;;;;;;;;;5119021;28;20427;-80
2023/11/12 04:56:16;;;;;;;32.77;29.97;;;;;;;;;;5118955;28;20447;-81
2023/11/12 04:58:44;;;;;;;32.53;29.63;;;;;;;;;;5118817;28;20492;-80
2023/11/12 05:01:12;;;;;;;32.85;29.95;;;;;;;;;;5119211;28;20485;-80
2023/11/12 05:03:40;;;;;;;34.47;31.23;;;;;;;;;;5119255;28;20259;-81
2023/11/12 05:06:07;;;;;;;33.67;30.97;;;;;;;;;;5118594;28;20423;-80
2023/11/12 05:08:34;;;;;;;34.77;31.67;;;;;;;;;;5118519;28;20474;-80
2023/11/12 05:11:02;;;;;;;36.93;33.53;;;;;;;;;;5118557;28;20447;-80
2023/11/12 05:13:29;;;;;;;35.80;32.50;;;;;;;;;;5118386;28;20427;-80
2023/11/12 05:15:58;;;;;;;36.13;32.90;;;;;;;;;;5118676;28;20452;-81
2023/11/12 05:18:25;;;;;;;34.57;31.43;;;;;;;;;;5118472;28;20495;-79
2023/11/12 05:20:52;;;;;;;36.33;33.00;;;;;;;;;;5119106;28;20558;-81
2023/11/12 05:23:19;;;;;;;35.63;32.37;;;;;;;;;;5118744;28;20459;-80
2023/11/12 05:25:46;;;;;;;37.60;33.70;;;;;;;;;;5117803;28;20422;-80
2023/11/12 05:28:13;;;;;;;36.03;32.83;;;;;;;;;;5118989;28;20475;-80
2023/11/12 05:30:40;;;;;;;35.53;32.33;;;;;;;;;;5118553;28;20497;-80
2023/11/12 05:33:08;;;;;;;36.30;32.70;;;;;;;;;;5118469;28;20418;-80
2023/11/12 05:35:35;;;;;;;34.80;31.77;;;;;;;;;;5118390;28;20456;-80
2023/11/12 05:38:02;;;;;;;35.27;31.97;;;;;;;;;;5118580;28;21301;-82
2023/11/12 05:40:30;;;;;;;37.70;34.30;;;;;;;;;;5117880;28;20434;-81
2023/11/12 05:42:57;;;;;;;36.50;33.00;;;;;;;;;;5117819;28;20452;-80
2023/11/12 05:45:24;;;;;;;35.97;32.60;;;;;;;;;;5118440;27;20460;-82
2023/11/12 05:47:51;;;;;;;35.87;32.57;;;;;;;;;;5128049;27;20471;-80
2023/11/12 05:50:20;;;;;;;36.50;33.20;;;;;;;;;;5139152;27;20447;-80
2023/11/12 05:52:47;;;;;;;36.20;32.85;;;;;;;;;;5139155;27;20465;-80
2023/11/12 05:55:14;;;;;;;36.83;33.40;;;;;;;;;;5138018;27;20814;-79
2023/11/12 05:57:42;;;;;;;36.27;33.00;;;;;;;;;;5136453;27;21004;-81
2023/11/12 06:00:10;;;;;;;38.73;34.90;;;;;;;;;;5138503;27;20451;-81
2023/11/12 06:02:37;;;;;;;37.63;34.13;;;;;;;;;;5138727;27;20455;-80
2023/11/12 06:05:05;;;;;;;36.20;33.00;;;;;;;;;;5137775;27;20446;-81
2023/11/12 06:07:33;;;;;;;35.97;32.93;;;;;;;;;;5136985;27;20438;-81
2023/11/12 06:10:00;;;;;;;35.73;32.60;;;;;;;;;;5138432;27;20447;-81
2023/11/12 06:12:27;;;;;;;34.30;31.60;;;;;;;;;;5137947;27;20417;-80
2023/11/12 06:14:54;;;;;;;35.43;32.53;;;;;;;;;;5137511;27;20439;-81
2023/11/12 06:17:21;;;;;;;34.60;31.37;;;;;;;;;;5138618;27;20467;-82
2023/11/12 06:19:49;;;;;;;35.77;32.37;;;;;;;;;;5138574;27;20439;-80
2023/11/12 06:22:16;;;;;;;33.67;30.37;;;;;;;;;;5137909;27;20447;-81
2023/11/12 06:24:44;;;;;;;35.17;32.13;;;;;;;;;;5138024;27;20463;-80
2023/11/12 06:27:11;;;;;;;36.03;32.83;;;;;;;;;;5138318;27;20474;-81
2023/11/12 06:29:38;;;;;;;35.43;32.20;;;;;;;;;;5138972;27;20511;-80
2023/11/12 06:32:06;;;;;;;35.17;32.07;;;;;;;;;;5138610;27;20471;-81
2023/11/12 06:34:34;;;;;;;35.80;32.67;;;;;;;;;;5138197;27;20471;-80
2023/11/12 06:37:02;;;;;;;35.37;32.03;;;;;;;;;;5138901;27;20451;-81
2023/11/12 06:39:30;;;;;;;37.63;34.13;;;;;;;;;;5138295;27;21051;-80
2023/11/12 06:41:58;;;;;;;35.03;32.13;;;;;;;;;;5138677;27;20926;-81
2023/11/12 06:44:25;;;;;;;37.77;34.20;;;;;;;;;;5136748;27;20454;-80
2023/11/12 06:46:52;;;;;;;38.83;34.90;;;;;;;;;;5137332;27;20845;-81
2023/11/12 06:49:19;;;;;;;48.10;44.00;;;;;;;;;;5137932;27;20499;-79
2023/11/12 06:51:46;;;;;;;39.58;36.20;;;;;;;;;;5128187;27;20517;-81
2023/11/12 06:54:13;;;;;;;42.87;39.03;;;;;;;;;;5120492;28;20263;-79
2023/11/12 06:56:41;;;;;;;42.80;39.00;;;;;;;;;;5116932;28;21013;-82
2023/11/12 06:59:09;;;;;;;37.80;34.20;;;;;;;;;;5117203;28;20480;-80
2023/11/12 07:01:37;;;;;;;41.20;37.27;;;;;;;;;;5128540;27;20483;-80
2023/11/12 07:04:06;;;;;;;38.43;34.73;;;;;;;;;;5125568;28;20486;-81
2023/11/12 07:06:33;;;;;;;45.55;41.65;;;;;;;;;;5122600;28;20821;-80
2023/11/12 07:09:00;;;;;;;43.67;39.60;;;;;;;;;;5124271;28;20284;-80
2023/11/12 07:11:28;;;;;;;39.67;36.10;;;;;;;;;;5140713;28;20877;-81
2023/11/12 07:13:55;;;;;;;45.33;41.43;;;;;;;;;;5137545;28;20515;-80
2023/11/12 07:16:23;;;;;;;39.97;36.40;;;;;;;;;;5124150;28;21255;-78
2023/11/12 07:18:51;;;;;;;40.77;37.03;;;;;;;;;;5133557;27;20487;-78
2023/11/12 07:21:24;;;;;;;36.40;33.30;;;;;;;;;;5137464;27;20454;-80
2023/11/12 07:23:51;;;;;;;35.20;32.10;;;;;;;;;;5138865;27;20479;-82
2023/11/12 07:26:19;;;;;;;36.97;33.78;;;;;;;;;;5133094;27;20491;-81
2023/11/12 07:28:46;;;;;;;36.33;33.13;;;;;;;;;;5120182;28;20214;-81
2023/11/12 07:31:13;;;;;;;36.50;33.20;;;;;;;;;;5121404;28;20202;-85
2023/11/12 07:33:42;;;;;;;37.80;34.70;;;;;;;;;;5119985;28;20451;-82
2023/11/12 07:36:11;;;;;;;54.77;48.87;;;;;;;;;;5119428;28;20471;-86
2023/11/12 07:38:38;;;;;;;41.25;37.17;;;;;;;;;;5118233;28;20526;-78
2023/11/12 07:41:07;;;;;;;37.67;34.42;;;;;;;;;;5116087;28;20320;-80
2023/11/12 07:43:34;;;;;;;35.30;32.30;;;;;;;;;;5115334;28;20642;-78
2023/11/12 07:46:02;;;;;;;35.07;32.03;;;;;;;;;;5114598;28;20452;-79
2023/11/12 07:48:29;;;;;;;38.17;34.53;;;;;;;;;;5116683;28;20795;-81
2023/11/12 07:50:58;;;;;;;38.27;34.73;;;;;;;;;;5118478;28;20451;-80
2023/11/12 07:53:25;;;;;;;37.87;34.60;;;;;;;;;;5117127;28;20428;-80
2023/11/12 07:55:52;;;;;;;38.93;35.50;;;;;;;;;;5116679;28;20459;-80
2023/11/12 07:58:19;;;;;;;37.27;34.00;;;;;;;;;;5118115;28;20576;-79
2023/11/12 08:00:46;;;;;;;39.30;35.83;;;;;;;;;;5117931;28;20475;-78
2023/11/12 08:03:13;;;;;;;37.23;33.83;;;;;;;;;;5114173;28;20920;-76
2023/11/12 08:05:41;;;;;;;36.00;33.00;;;;;;;;;;5112332;28;20472;-77
2023/11/12 08:08:09;;;;;;;36.80;33.07;;;;;;;;;;5113515;28;20551;-75
2023/11/12 08:10:37;;;;;;;37.10;33.70;;;;;;;;;;5113489;28;20452;-76
2023/11/12 08:13:04;;;;;;;51.37;46.17;;;;;;;;;;5113383;28;20527;-76
2023/11/12 08:15:31;;;;;;;61.93;55.90;;;;;;;;;;5112891;28;20454;-76
2023/11/12 08:17:58;;;;;;;40.60;36.70;;;;;;;;;;5113077;28;20464;-76
2023/11/12 08:20:25;;;;;;;37.73;34.50;;;;;;;;;;5112868;28;20423;-75
2023/11/12 08:22:53;;;;;;;37.70;34.40;;;;;;;;;;5112915;28;20458;-74
2023/11/12 08:25:21;;;;;;;38.33;34.70;;;;;;;;;;5114644;28;20447;-75
2023/11/12 08:27:48;;;;;;;36.60;33.73;;;;;;;;;;5113326;28;20468;-75
2023/11/12 08:30:15;;;;;;;36.80;33.70;;;;;;;;;;5112160;28;20452;-75
2023/11/12 08:32:43;;;;;;;36.28;33.10;;;;;;;;;;5112840;28;20666;-76
2023/11/12 08:35:10;;;;;;;35.70;32.50;;;;;;;;;;5112604;28;20235;-75
2023/11/12 08:37:37;;;;;;;37.63;34.55;;;;;;;;;;5112497;28;20551;-75
2023/11/12 08:40:05;;;;;;;36.27;33.23;;;;;;;;;;5112850;28;20234;-75
2023/11/12 08:42:34;;;;;;;37.50;34.30;;;;;;;;;;5112437;28;20539;-76
2023/11/12 08:45:01;;;;;;;34.63;31.83;;;;;;;;;;5112196;28;20436;-76
2023/11/12 08:47:28;;;;;;;36.77;33.27;;;;;;;;;;5112602;28;20467;-75
2023/11/12 08:49:55;;;;;;;35.87;32.77;;;;;;;;;;5113047;28;20440;-77
2023/11/12 08:52:23;;;;;;;35.40;32.30;;;;;;;;;;5112744;28;20443;-75
2023/11/12 08:54:51;;;;;;;47.67;43.40;;;;;;;;;;5112143;28;20547;-75
2023/11/12 08:57:18;;;;;;;35.63;32.27;;;;;;;;;;5112527;28;20578;-76
2023/11/12 08:59:47;;;;;;;35.00;32.03;;;;;;;;;;5111963;28;20496;-76
2023/11/12 09:02:14;;;;;;;34.57;31.53;;;;;;;;;;5113034;28;20534;-77
2023/11/12 09:04:40;;;;;;;32.33;29.63;;;;;;;;;;5112108;28;20547;-75
2023/11/12 09:07:08;;;;;;;35.97;33.10;;;;;;;;;;5113595;27;20461;-78
2023/11/12 09:09:35;;;;;;;35.17;32.17;;;;;;;;;;5112783;28;20444;-77
2023/11/12 09:12:04;;;;;;;35.93;32.90;;;;;;;;;;5111580;28;20849;-77
2023/11/12 09:14:31;;;;;;;34.93;32.03;;;;;;;;;;5111497;28;20451;-76
2023/11/12 09:16:59;;;;;;;32.00;29.00;;;;;;;;;;5111888;28;20445;-75
2023/11/12 09:19:26;;;;;;;32.83;30.07;;;;;;;;;;5112091;28;20507;-76
2023/11/12 09:21:53;;;;;;;36.30;33.57;;;;;;;;;;5111908;28;20456;-75
2023/11/12 09:24:20;;;;;;;34.37;31.47;;;;;;;;;;5111550;28;20447;-76
2023/11/12 09:26:47;;;;;;;41.47;37.80;;;;;;;;;;5111478;28;20451;-75
2023/11/12 09:29:14;;;;;;;44.17;40.00;;;;;;;;;;5111608;28;20415;-76
2023/11/12 09:31:41;;;;;;;38.20;34.93;;;;;;;;;;5111754;28;20452;-75
2023/11/12 09:34:09;;;;;;;33.47;30.93;;;;;;;;;;5111412;28;20422;-75
2023/11/12 09:36:36;;;;;;;31.87;29.37;;;;;;;;;;5111599;28;20451;-75
2023/11/12 09:39:04;;;;;;;34.20;31.40;;;;;;;;;;5111662;28;20846;-76
2023/11/12 09:41:32;;;;;;;32.23;29.30;;;;;;;;;;5111938;28;20542;-77
2023/11/12 09:44:03;;;;;;;31.80;29.30;;;;;;;;;;5111158;28;20418;-77
2023/11/12 09:46:30;;;;;;;32.87;30.30;;;;;;;;;;5116346;28;20519;-72
2023/11/12 09:48:58;;;;;;;28.90;26.70;;;;;;;;;;5111694;28;20460;-77
2023/11/12 09:51:26;;;;;;;29.23;26.90;;;;;;;;;;5112369;28;21015;-76
2023/11/12 09:53:54;;;;;;;30.17;27.57;;;;;;;;;;5110599;28;20924;-75
2023/11/12 09:56:24;;;;;;;29.47;27.00;;;;;;;;;;5111617;28;20422;-75
2023/11/12 09:58:52;;;;;;;29.30;27.10;;;;;;;;;;5109939;28;20997;-76
2023/11/12 10:01:20;;;;;;;31.20;28.70;;;;;;;;;;5110383;28;20479;-76
2023/11/12 10:03:48;;;;;;;30.87;28.67;;;;;;;;;;5110804;28;20452;-75
2023/11/12 10:06:16;;;;;;;33.20;30.67;;;;;;;;;;5115298;28;20434;-79
2023/11/12 10:08:45;;;;;;;30.60;28.33;;;;;;;;;;5119887;27;20459;-74
2023/11/12 10:11:15;;;;;;;30.67;28.40;;;;;;;;;;5133415;27;20497;-78
2023/11/12 10:13:43;;;;;;;30.40;28.13;;;;;;;;;;5136736;27;20442;-78
2023/11/12 10:16:23;;;;;;;28.27;26.20;;;;;;;;;;5132946;27;20421;-77
2023/11/12 10:18:51;;;;;;;30.40;27.87;;;;;;;;;;5130942;27;21008;-76
2023/11/12 10:21:19;;;;;;;27.77;25.77;;;;;;;;;;5127804;27;20459;-74
2023/11/12 10:23:47;;;;;;;28.23;26.23;;;;;;;;;;5120471;27;20467;-74
2023/11/12 10:26:15;;;;;;;28.30;26.20;;;;;;;;;;5123850;27;20809;-75
2023/11/12 10:28:42;;;;;;;28.83;26.77;;;;;;;;;;5111659;28;20463;-77
2023/11/12 10:31:13;;;;;;;28.03;25.90;;;;;;;;;;5112054;28;20448;-92
2023/11/12 10:33:41;;;;;;;29.50;26.90;;;;;;;;;;5115080;28;20424;-79
2023/11/12 10:36:09;;;;;;;26.37;24.60;;;;;;;;;;5116658;28;20490;-79
2023/11/12 10:38:48;;;;;;;26.00;24.10;;;;;;;;;;5134103;27;20467;-81
2023/11/12 10:41:15;;;;;;;25.33;23.57;;;;;;;;;;5137802;27;20431;-84
2023/11/12 10:43:56;;;;;;;25.27;23.30;;;;;;;;;;5127197;27;20501;-81
2023/11/12 10:46:23;;;;;;;24.20;22.40;;;;;;;;;;5118891;27;20412;-83
2023/11/12 10:48:52;;;;;;;25.50;23.93;;;;;;;;;;5136630;27;20459;-73
2023/11/12 10:51:20;;;;;;;26.30;24.00;;;;;;;;;;5131378;27;20447;-75
2023/11/12 10:53:54;;;;;;;24.50;22.70;;;;;;;;;;5126701;27;20497;-75
2023/11/12 10:56:22;;;;;;;24.73;22.83;;;;;;;;;;5121708;27;20458;-75
2023/11/12 10:58:50;;;;;;;24.60;23.10;;;;;;;;;;5121485;28;20503;-75
2023/11/12 11:01:18;;;;;;;23.93;22.30;;;;;;;;;;5118729;28;20443;-74
2023/11/12 11:03:45;;;;;;;24.40;22.70;;;;;;;;;;5130539;27;20499;-74
2023/11/12 11:06:13;;;;;;;23.67;21.93;;;;;;;;;;5131354;28;20417;-75
2023/11/12 11:08:41;;;;;;;24.80;23.20;;;;;;;;;;5131702;28;20467;-74
2023/11/12 11:11:10;;;;;;;23.67;22.17;;;;;;;;;;5131675;28;20450;-75
2023/11/12 11:13:38;;;;;;;22.93;21.30;;;;;;;;;;5131234;28;20451;-73
2023/11/12 11:16:05;;;;;;;24.50;22.60;;;;;;;;;;5131099;28;20484;-74
2023/11/12 11:18:49;;;;;;;24.17;22.20;;;;;;;;;;5131123;28;20478;-74
2023/11/12 11:21:17;;;;;;;23.60;21.90;;;;;;;;;;5131434;28;20455;-74
2023/11/12 11:23:45;;;;;;;24.00;22.40;;;;;;;;;;5130924;28;20435;-75
2023/11/12 11:26:29;;;;;;;22.80;21.33;;;;;;;;;;5131356;28;20436;-74
2023/11/12 11:29:15;;;;;;;23.07;21.57;;;;;;;;;;5130938;28;20467;-74
2023/11/12 11:31:58;;;;;;;23.00;21.30;;;;;;;;;;5130093;28;20537;-74
2023/11/12 11:34:38;;;;;;;22.87;21.30;;;;;;;;;;5099826;28;20431;-74
2023/11/12 11:37:06;;;;;;;24.27;22.23;;;;;;;;;;5109594;28;20978;-74
2023/11/12 11:39:33;;;;;;;22.57;21.13;;;;;;;;;;5109263;28;20458;-74
2023/11/12 11:42:14;;;;;;;23.97;22.50;;;;;;;;;;5109282;28;20517;-74
2023/11/12 11:44:42;;;;;;;22.73;21.33;;;;;;;;;;5113602;28;20988;-77
2023/11/12 11:47:12;;;;;;;23.43;21.80;;;;;;;;;;5111135;28;20517;-77
2023/11/12 11:49:38;;;;;;;22.03;20.73;;;;;;;;;;5116962;28;20460;-86
2023/11/12 11:52:07;;;;;;;21.80;20.40;;;;;;;;;;5117766;28;20487;-83
2023/11/12 11:54:34;;;;;;;22.83;21.40;;;;;;;;;;5114004;28;20428;-76
2023/11/12 11:57:02;;;;;;;23.47;22.07;;;;;;;;;;5112449;28;20511;-76
2023/11/12 11:59:31;;;;;;;22.77;21.37;;;;;;;;;;5126424;28;20495;-84
2023/11/12 12:02:00;;;;;;;22.07;20.60;;;;;;;;;;5136484;27;20466;-84
2023/11/12 12:04:27;;;;;;;21.80;20.37;;;;;;;;;;5136715;27;20428;-80
2023/11/12 12:06:55;;;;;;;21.80;20.40;;;;;;;;;;5139950;27;20947;-80
2023/11/12 12:09:23;;;;;;;22.10;20.80;;;;;;;;;;5140393;27;20443;-80
2023/11/12 12:11:52;;;;;;;20.57;19.33;;;;;;;;;;5140436;27;20446;-81
2023/11/12 12:14:20;;;;;;;21.50;20.10;;;;;;;;;;5133662;27;20448;-80
2023/11/12 12:16:49;;;;;;;22.80;21.30;;;;;;;;;;5119935;28;20448;-81
2023/11/12 12:19:17;;;;;;;21.13;20.00;;;;;;;;;;5119104;28;20451;-81
2023/11/12 12:21:45;;;;;;;22.27;20.97;;;;;;;;;;5119787;28;20990;-80
2023/11/12 12:24:12;;;;;;;22.13;20.73;;;;;;;;;;5118081;28;20464;-81
2023/11/12 12:26:39;;;;;;;24.00;22.43;;;;;;;;;;5122921;27;20477;-80
2023/11/12 12:29:12;;;;;;;26.30;24.37;;;;;;;;;;5136930;27;20496;-81
2023/11/12 12:31:39;;;;;;;24.70;22.90;;;;;;;;;;5118356;28;20433;-77
2023/11/12 12:34:09;;;;;;;21.80;20.27;;;;;;;;;;5113657;28;20444;-77
2023/11/12 12:36:36;;;;;;;22.33;20.77;;;;;;;;;;5120073;28;20474;-83
2023/11/12 12:39:06;;;;;;;23.60;22.00;;;;;;;;;;5121246;28;20439;-84
2023/11/12 12:41:33;;;;;;;21.70;20.47;;;;;;;;;;5121755;28;20929;-84
2023/11/12 12:44:01;;;;;;;23.60;22.20;;;;;;;;;;5119227;28;20479;-80
2023/11/12 12:46:43;;;;;;;21.90;20.60;;;;;;;;;;5120145;28;20780;-79
2023/11/12 12:49:11;;;;;;;22.50;20.63;;;;;;;;;;5134755;27;20455;-84
2023/11/12 12:51:49;;;;;;;23.27;21.70;;;;;;;;;;5130297;27;20521;-83
2023/11/12 12:54:16;;;;;;;21.30;20.07;;;;;;;;;;5121624;27;20480;-82
2023/11/12 12:56:44;;;;;;;22.23;20.73;;;;;;;;;;5139802;27;20447;-83
2023/11/12 12:59:11;;;;;;;22.27;20.90;;;;;;;;;;5126603;27;20456;-80
2023/11/12 13:01:39;;;;;;;22.93;21.27;;;;;;;;;;5138408;27;20473;-82
2023/11/12 13:04:08;;;;;;;23.53;22.07;;;;;;;;;;5122822;27;20852;-83
2023/11/12 13:06:37;;;;;;;25.60;24.07;;;;;;;;;;5118093;28;20452;-81
2023/11/12 13:09:12;;;;;;;25.03;22.97;;;;;;;;;;5124900;27;20561;-81
2023/11/12 13:11:39;;;;;;;22.10;20.80;;;;;;;;;;5135055;27;20435;-79
2023/11/12 13:14:11;;;;;;;23.10;21.80;;;;;;;;;;5115949;27;20460;-81
2023/11/12 13:16:41;;;;;;;24.13;22.23;;;;;;;;;;5126534;27;20479;-81
2023/11/12 13:19:14;;;;;;;22.20;20.90;;;;;;;;;;5133318;27;20520;-82
2023/11/12 13:21:42;;;;;;;22.97;21.77;;;;;;;;;;5133165;27;20459;-78
2023/11/12 13:24:10;;;;;;;23.03;21.40;;;;;;;;;;5132605;27;21018;-80
2023/11/12 13:26:38;;;;;;;22.50;21.10;;;;;;;;;;5132837;27;20473;-78
2023/11/12 13:29:07;;;;;;;21.67;20.20;;;;;;;;;;5114297;27;20497;-79
2023/11/12 13:31:34;;;;;;;22.07;20.67;;;;;;;;;;5126845;27;20513;-79
2023/11/12 13:34:01;;;;;;;22.00;20.57;;;;;;;;;;5132747;27;20464;-78
2023/11/12 13:36:28;;;;;;;21.90;20.60;;;;;;;;;;5125371;27;20468;-78
2023/11/12 13:38:57;;;;;;;20.60;19.27;;;;;;;;;;5117184;27;20478;-79
2023/11/12 13:41:27;;;;;;;21.40;20.00;;;;;;;;;;5116551;27;20494;-78
2023/11/12 13:43:54;;;;;;;23.70;22.33;;;;;;;;;;5129604;27;20482;-80
2023/11/12 13:46:22;;;;;;;22.07;20.83;;;;;;;;;;5131197;27;20454;-79
2023/11/12 13:48:49;;;;;;;21.67;20.47;;;;;;;;;;5112285;28;20566;-79
2023/11/12 13:51:18;;;;;;;21.97;20.57;;;;;;;;;;5112951;28;20433;-80
2023/11/12 13:53:48;;;;;;;21.80;20.50;;;;;;;;;;5112701;28;20448;-77
2023/11/12 13:56:18;;;;;;;21.67;20.47;;;;;;;;;;5113136;28;20436;-77
2023/11/12 13:58:46;;;;;;;22.80;21.30;;;;;;;;;;5112697;28;20470;-81
2023/11/12 14:01:13;;;;;;;22.40;21.07;;;;;;;;;;5112410;28;20526;-78
2023/11/12 14:03:40;;;;;;;23.60;22.10;;;;;;;;;;5125320;27;20447;-79
2023/11/12 14:06:08;;;;;;;30.27;27.77;;;;;;;;;;5111614;27;20476;-78
2023/11/12 14:08:35;;;;;;;23.67;22.07;;;;;;;;;;5112289;28;20581;-78
2023/11/12 14:11:02;;;;;;;23.70;22.00;;;;;;;;;;5111909;28;20549;-79
2023/11/12 14:13:31;;;;;;;22.10;20.63;;;;;;;;;;5112516;28;20447;-78
2023/11/12 14:15:58;;;;;;;23.43;22.03;;;;;;;;;;5111311;28;20459;-77
2023/11/12 14:18:25;;;;;;;22.17;20.73;;;;;;;;;;5128009;27;20446;-79
2023/11/12 14:20:52;;;;;;;21.70;20.37;;;;;;;;;;5114039;27;20991;-78